Flight Track Log - Related Links

Times and Time Zones

All times are in EDT time to prevent confusion due to time zone crossing. See the N449ND flight status page for this flight to view local times or setup timezone preferences in your user account.


Time Position Orientation Groundspeed Altitude Reporting Facility
EDT Latitude Longitude Course Direction KTS MPH feet Rate Location/Type
Sun 01:47:04 PM 27.4964 -80.3522 152° Southeast 100 115 600  Level Miami Center
Sun 01:48:04 PM 27.4928 -80.3286 100° East 95 109 1,200 550 Climbing Miami Center
Sun 01:49:04 PM 27.4911 -80.3053 95° East 88 101 1,700 600 Climbing Miami Center
Sun 01:50:04 PM 27.4897 -80.2725 93° East 88 101 2,400 650 Climbing Miami Center
Sun 01:51:00 PM 27.4975 -80.3726 152° Southeast  Level Estimated
Sun 01:51:04 PM 27.4906 -80.2467 88° East 83 96 3,000  Level Miami Center
Sun 01:52:00 PM 27.4975 -80.3726 152° Southeast  Level Estimated
Sun 01:52:04 PM 27.4933 -80.2164 84° East 83 96 3,000  Level Miami Center
Sun 01:53:04 PM 27.5061 -80.2028 43° Northeast 71 82 3,000  Level Miami Center
Sun 01:54:04 PM 27.5242 -80.2267 310° West 48 55 3,000  Level Miami Center
Sun 01:55:04 PM 27.5403 -80.2553 302° West 92 106 3,000 -50 Level Miami Center
Sun 01:56:04 PM 27.5583 -80.2839 305° West 102 117 2,900 -50 Descending Miami Center
Sun 01:57:04 PM 27.5725 -80.3078 304° West 102 117 2,900 50 Level Miami Center
Sun 01:58:04 PM 27.5867 -80.3317 304° West 102 117 3,000 50 Climbing Miami Center
Sun 01:59:04 PM 27.6044 -80.3625 303° West 102 117 3,000  Level Miami Center
Sun 02:00:04 PM 27.6081 -80.3861 280° West 89 102 3,000  Level Miami Center
Sun 02:01:04 PM 27.5867 -80.4067 220° Southwest 84 97 3,000 -50 Level Miami Center
Sun 02:02:04 PM 27.5758 -80.4297 242° Southwest 100 115 2,900  Descending Miami Center
Sun 02:03:04 PM 27.5647 -80.4550 244° Southwest 100 115 3,000 50 Climbing Miami Center
Sun 02:04:04 PM 27.5619 -80.4878 265° West 100 115 3,000 -50 Level Miami Center
Sun 02:05:04 PM 27.5653 -80.5206 277° West 106 122 2,900 -50 Descending Miami Center
Sun 02:06:04 PM 27.5728 -80.5489 287° West 106 122 2,900 50 Level Miami Center
Sun 02:07:04 PM 27.5867 -80.5728 303° West 101 116 3,000 50 Climbing Miami Center
Sun 02:08:04 PM 27.6050 -80.5944 314° West 101 116 3,000 -300 Level Miami Center
Sun 02:09:04 PM 27.6297 -80.6117 328° Northwest 96 110 2,400 -650 Descending Miami Center
Sun 02:10:04 PM 27.6567 -80.6197 345° North 96 110 1,700 -450 Descending Miami Center
Sun 02:11:04 PM 27.6814 -80.6253 349° North 91 105 1,500 -50 Descending Miami Center
Sun 02:12:04 PM 27.7025 -80.6236 North 91 105 1,600  Climbing Miami Center
Sun 02:13:04 PM 27.7136 -80.5933 67° East 75 86 1,500 -50 Descending Miami Center
Sun 02:14:04 PM 27.7061 -80.5650 107° East 94 108 1,500 50 Level Miami Center
Sun 02:15:04 PM 27.6961 -80.5389 113° Southeast 94 108 1,600 -100 Climbing Miami Center
Sun 02:16:04 PM 27.6864 -80.5153 115° Southeast 94 108 1,300 -200 Descending Miami Center
Sun 02:17:04 PM 27.6767 -80.4867 111° Southeast 94 108 1,200 -350 Descending Miami Center
Sun 02:18:04 PM 27.6669 -80.4583 111° Southeast 94 108 600 -400 Descending Miami Center
Sun 02:19:04 PM 27.6592 -80.4344 110° East 94 108 400 1,200 Descending Miami Center
Sun 02:20:04 PM 27.6536 -80.4086 104° East 89 102 3,000 600 Climbing Miami Center
Sun 02:21:04 PM 27.6478 -80.3850 106° East 84 97 1,600 -400 Descending Miami Center
Sun 02:22:04 PM 27.6403 -80.3589 108° East 84 97 2,200 600 Climbing Miami Center
Sun 02:23:04 PM 27.6367 -80.3331 99° East 84 97 2,800 400 Climbing Miami Center
Sun 02:24:04 PM 27.6331 -80.3025 98° East 89 102 3,000 100 Climbing Miami Center
Sun 02:25:04 PM 27.6233 -80.2789 115° Southeast 94 108 3,000  Level Miami Center
Sun 02:26:16 PM 27.6164 -80.3044 253° West 88 101 3,000  Level Miami Center
Sun 02:27:16 PM 27.6114 -80.3417 261° West 94 108 3,000  Level Miami Center
Sun 02:28:16 PM 27.6086 -80.3722 264° West 94 108 3,000  Level Miami Center
Sun 02:29:16 PM 27.6058 -80.4000 264° West 106 122 3,000 -50 Level Miami Center
Sun 02:30:16 PM 27.6031 -80.4281 264° West 101 116 2,900  Descending Miami Center
Sun 02:31:16 PM 27.5981 -80.4608 260° West 101 116 3,000 50 Climbing Miami Center
Sun 02:32:16 PM 27.5953 -80.4864 263° West 95 109 3,000  Level Miami Center
Sun 02:33:16 PM 27.5925 -80.5169 264° West 95 109 3,000  Level Miami Center
Sun 02:34:16 PM 27.5897 -80.5425 263° West 95 109 3,000 -50 Level Miami Center
Sun 02:35:16 PM 27.5844 -80.5775 260° West 104 120 2,900 -50 Descending Miami Center
Sun 02:36:16 PM 27.5817 -80.6078 264° West 99 114 2,900 100 Level Miami Center
Sun 02:37:16 PM 27.5914 -80.6364 291° West 99 114 3,100  Climbing Miami Center
Sun 02:38:16 PM 27.6125 -80.6300 15° North 83 96 2,900 -50 Descending Miami Center
Sun 02:39:16 PM 27.5942 -80.6153 145° Southeast 43 49 3,000 100 Climbing Miami Center
Sun 02:40:16 PM 27.5844 -80.5822 108° East 92 106 3,100  Climbing Miami Center
Sun 02:41:16 PM 27.6011 -80.5875 344° North 62 71 3,000 -50 Descending Miami Center
Sun 02:42:16 PM 27.6128 -80.6158 295° West 78 90 3,000  Level Miami Center
Sun 02:43:16 PM 27.6000 -80.6250 212° Southwest 69 79 3,000  Level Miami Center
Sun 02:44:16 PM 27.5861 -80.5986 121° Southeast 40 46 3,000 50 Level Miami Center
Sun 02:45:16 PM 27.5614 -80.5886 160° South 81 93 3,100 -100 Climbing Miami Center
Sun 02:46:16 PM 27.5361 -80.5947 192° South 96 110 2,800 -500 Descending Miami Center
Sun 02:47:16 PM 27.5089 -80.5939 178° South 101 116 2,100 -450 Descending Miami Center
Sun 02:48:16 PM 27.4992 -80.5725 117° Southeast 81 93 1,900 -100 Descending Miami Center
Sun 02:49:16 PM 27.5000 -80.5397 88° East 85 98 1,900 -50 Level Miami Center
Sun 02:50:16 PM 27.5008 -80.5069 88° East 103 119 1,800  Descending Miami Center
Sun 02:51:16 PM 27.4975 -80.4739 96° East 103 119 1,900 -318 Climbing Miami Center
Sun 02:52:28 PM 27.4981 -80.4458 89° East 91 105 1,100 -500 Descending Miami Center
Sun 02:53:28 PM 27.4989 -80.4178 88° East 86 99 800 -350 Descending Miami Center
Sun 02:54:28 PM 27.4975 -80.3922 94° East 86 99 400 -50 Descending Miami Center
Sun 02:55:28 PM 27.4981 -80.3664 89° East 86 99 700 1,300 Climbing Miami Center
Sun 02:56:28 PM 27.4817 -80.3564 152° Southeast 75 86 3,000 600 Climbing Miami Center
Sun 02:57:28 PM 27.4586 -80.3558 179° South 82 94 1,900 -200 Descending Miami Center
Sun 02:58:28 PM 27.4314 -80.3528 174° South 92 106 2,600 550 Climbing Miami Center
Sun 02:59:28 PM 27.4064 -80.3519 178° South 92 106 3,000 200 Climbing Miami Center
Sun 03:00:28 PM 27.3914 -80.3700 227° Southwest 81 93 3,000  Level Miami Center
Sun 03:01:28 PM 27.3908 -80.3981 269° West 86 99 3,000 50 Level Miami Center
Sun 03:02:28 PM 27.3881 -80.4286 264° West 100 115 3,100  Climbing Miami Center
Sun 03:03:28 PM 27.3850 -80.4611 264° West 105 121 3,000 -50 Descending Miami Center
Sun 03:04:28 PM 27.3822 -80.4914 264° West 105 121 3,000 100 Level Miami Center
Sun 03:05:28 PM 27.3794 -80.5194 264° West 99 114 3,200 -200 Climbing Miami Center
Sun 03:06:28 PM 27.4000 -80.5342 328° Northwest 86 99 2,600 -550 Descending Miami Center
Sun 03:07:28 PM 27.4289 -80.5397 350° North 91 105 2,100 -250 Descending Miami Center
Sun 03:08:28 PM 27.4561 -80.5428 354° North 96 110 2,100  Level Miami Center
Sun 03:09:28 PM 27.4833 -80.5414 North 96 110 2,100 -50 Level Miami Center
Sun 03:10:28 PM 27.4983 -80.5186 53° Northeast 89 102 2,000 -150 Descending Miami Center
Sun 03:11:28 PM 27.4972 -80.4881 92° East 89 102 1,800 -150 Descending Miami Center
Sun 03:12:28 PM 27.4975 -80.4669 89° East 89 102 1,700 -400 Descending Miami Center
Sun 03:13:28 PM 27.4986 -80.4319 88° East 83 96 1,000 -600 Descending Miami Center
Sun 03:14:28 PM 27.4969 -80.4083 95° East 83 96 500 -350 Descending Miami Center
Sun 03:15:28 PM 27.4994 -80.3875 82° East 78 90 300 -150 Descending Miami Center
Sun 03:16:28 PM 27.5000 -80.3689 88° East 73 84 200 -100 Descending Miami Center

Login

Don't have an account? Register now (free) for customized features, flight alerts, and more!